createdAt,value
2022-10-06T00:01:36.806Z,0.50
2022-10-06T00:06:38.515Z,0.60
2022-10-06T00:11:40.087Z,0.70
2022-10-06T00:16:41.561Z,0.93
2022-10-06T00:21:43.046Z,0.60
2022-10-06T00:26:46.171Z,0.70
2022-10-06T00:31:47.653Z,0.70
2022-10-06T00:36:49.124Z,0.60
2022-10-06T00:41:50.785Z,0.83
2022-10-06T00:46:53.794Z,1.00
2022-10-06T00:52:00.808Z,1.20
2022-10-06T00:57:04.109Z,1.40
2022-10-06T01:02:28.632Z,1.60
2022-10-06T01:07:30.656Z,1.40
2022-10-06T01:12:33.613Z,1.20
2022-10-06T01:17:41.862Z,0.80
2022-10-06T01:22:45.535Z,0.83
2022-10-06T01:27:53.554Z,0.87
2022-10-06T01:32:58.259Z,1.00
2022-10-06T01:38:00.494Z,1.00
2022-10-06T01:43:03.929Z,0.80
2022-10-06T01:48:06.471Z,0.70
2022-10-06T01:53:08.054Z,0.80
2022-10-06T01:58:11.101Z,0.83
2022-10-06T02:03:12.880Z,0.70
2022-10-06T02:08:14.554Z,1.00
2022-10-06T02:13:17.302Z,0.57
2022-10-06T02:18:19.082Z,1.10
2022-10-06T02:23:20.571Z,1.00
2022-10-06T02:28:22.605Z,1.00
2022-10-06T02:33:24.662Z,1.10
2022-10-06T02:38:27.520Z,1.00
2022-10-06T02:43:31.504Z,1.17
2022-10-06T02:48:35.120Z,1.13
2022-10-06T02:53:39.830Z,1.27
2022-10-06T02:58:43.081Z,0.97
2022-10-06T03:03:48.255Z,1.33
2022-10-06T03:08:51.837Z,1.00
2022-10-06T03:13:53.733Z,1.47
2022-10-06T03:18:56.101Z,0.80
2022-10-06T03:23:58.669Z,1.10
2022-10-06T03:29:02.341Z,1.50
2022-10-06T03:34:04.688Z,1.57
2022-10-06T03:39:06.957Z,1.40
2022-10-06T03:44:09.372Z,1.07
2022-10-06T03:49:13.806Z,1.10
2022-10-06T03:54:16.626Z,1.50
2022-10-06T03:59:21.214Z,1.53
2022-10-06T04:04:24.821Z,1.30
2022-10-06T04:09:31.918Z,1.50
2022-10-06T04:14:34.540Z,1.43
2022-10-06T04:19:36.780Z,1.40
2022-10-06T04:24:38.701Z,1.27
2022-10-06T04:29:40.994Z,1.30
2022-10-06T04:34:43.348Z,1.30
2022-10-06T04:39:45.389Z,1.60
2022-10-06T04:44:47.677Z,1.33
2022-10-06T04:49:49.813Z,1.23
2022-10-06T04:54:51.728Z,1.27
2022-10-06T05:00:14.932Z,1.10
2022-10-06T05:05:19.395Z,1.70
2022-10-06T05:10:21.728Z,1.30
2022-10-06T05:15:23.754Z,1.50
2022-10-06T05:20:25.481Z,1.00
2022-10-06T05:25:27.569Z,1.33
2022-10-06T05:30:29.543Z,1.90
2022-10-06T05:35:31.590Z,1.30
2022-10-06T05:40:33.443Z,2.20
2022-10-06T05:45:35.271Z,1.47
2022-10-06T05:50:37.779Z,1.83
2022-10-06T05:55:39.561Z,1.87
2022-10-06T06:00:41.503Z,1.60
2022-10-06T06:05:43.570Z,1.70
2022-10-06T06:10:45.524Z,1.40
2022-10-06T06:16:04.278Z,1.73
2022-10-06T06:21:09.714Z,1.63
2022-10-06T06:26:14.458Z,2.10
2022-10-06T06:31:22.932Z,1.90
2022-10-06T06:36:36.018Z,1.97
2022-10-06T06:41:42.638Z,1.73
2022-10-06T06:46:52.750Z,1.57
2022-10-06T06:51:54.839Z,1.40
2022-10-06T06:56:59.240Z,1.77
2022-10-06T07:02:01.608Z,1.23
2022-10-06T07:07:06.106Z,1.70
2022-10-06T07:12:11.557Z,1.90
2022-10-06T07:17:39.979Z,1.70
2022-10-06T07:22:59.934Z,1.50
2022-10-06T07:28:02.582Z,1.50
2022-10-06T07:33:09.170Z,1.30
2022-10-06T07:38:12.477Z,1.73
2022-10-06T07:43:18.577Z,1.57
2022-10-06T07:48:23.350Z,1.30
2022-10-06T07:53:31.339Z,1.67
2022-10-06T07:58:40.849Z,1.57
2022-10-06T08:03:44.451Z,1.63
2022-10-06T08:08:52.394Z,1.77
2022-10-06T08:13:54.718Z,1.47
2022-10-06T08:18:58.137Z,1.43
2022-10-06T08:24:02.907Z,1.37
2022-10-06T08:29:04.638Z,1.73
2022-10-06T08:34:11.841Z,1.73
2022-10-06T08:39:13.768Z,1.58
2022-10-06T08:44:16.706Z,1.88
2022-10-06T08:49:20.679Z,1.73
2022-10-06T08:54:43.709Z,1.58
2022-10-06T08:59:47.320Z,1.55
2022-10-06T09:04:51.246Z,1.73
2022-10-06T09:09:58.870Z,1.63
2022-10-06T09:15:25.589Z,1.73
2022-10-06T09:20:36.008Z,1.50
2022-10-06T09:25:37.855Z,1.70
2022-10-06T09:30:41.722Z,1.30
2022-10-06T09:36:08.859Z,2.07
2022-10-06T09:41:11.522Z,1.50
2022-10-06T09:46:34.478Z,1.20
2022-10-06T09:51:36.525Z,1.70
2022-10-06T09:56:45.133Z,1.60
2022-10-06T10:01:57.258Z,1.43
2022-10-06T10:07:15.338Z,1.43
2022-10-06T10:12:27.181Z,1.10
2022-10-06T10:17:42.040Z,1.20
2022-10-06T10:22:46.164Z,1.30
2022-10-06T10:27:58.285Z,1.00
2022-10-06T10:33:18.524Z,1.33
2022-10-06T10:38:21.765Z,1.13
2022-10-06T10:43:44.697Z,1.87
2022-10-06T10:48:56.673Z,1.20
2022-10-06T10:54:00.333Z,1.00
2022-10-06T10:59:23.761Z,1.43
2022-10-06T11:04:25.628Z,1.00
2022-10-06T11:09:52.195Z,0.70
2022-10-06T11:14:58.036Z,1.20
2022-10-06T11:20:11.867Z,1.20
2022-10-06T11:25:35.260Z,0.80
2022-10-06T11:30:53.344Z,0.70
2022-10-06T11:35:55.560Z,0.97
2022-10-06T11:41:13.691Z,1.10
2022-10-06T11:46:19.645Z,1.30
2022-10-06T11:51:24.659Z,0.70
2022-10-06T11:56:37.335Z,1.10
2022-10-06T12:01:45.265Z,1.17
2022-10-06T12:06:46.944Z,0.80
2022-10-06T12:11:50.406Z,0.80
2022-10-06T12:17:11.338Z,0.87
2022-10-06T12:22:43.469Z,1.00
2022-10-06T12:28:05.876Z,0.80
2022-10-06T12:33:17.137Z,1.10
2022-10-06T12:38:43.218Z,0.70
2022-10-06T12:43:53.762Z,0.80
2022-10-06T12:49:18.116Z,0.90
2022-10-06T12:54:35.661Z,0.90
2022-10-06T12:59:39.920Z,0.60
2022-10-06T13:04:44.401Z,0.70
2022-10-06T13:09:48.056Z,1.10
2022-10-06T13:15:23.804Z,1.07
2022-10-06T13:20:33.244Z,0.60
2022-10-06T13:25:49.642Z,0.80
2022-10-06T13:30:56.712Z,0.70
2022-10-06T13:35:58.968Z,0.93
2022-10-06T13:41:28.913Z,0.73
2022-10-06T13:46:32.692Z,1.00
2022-10-06T13:51:34.470Z,0.60
2022-10-06T13:56:38.767Z,1.03
2022-10-06T14:01:40.537Z,1.00
2022-10-06T14:06:49.766Z,0.77
2022-10-06T14:11:53.595Z,1.00
2022-10-06T14:16:55.386Z,0.80
2022-10-06T14:21:57.036Z,0.90
2022-10-06T14:27:05.886Z,0.67
2022-10-06T14:32:17.786Z,1.00
2022-10-06T14:37:19.432Z,0.87
2022-10-06T14:42:24.507Z,0.63
2022-10-06T14:47:26.128Z,0.90
2022-10-06T14:52:27.795Z,1.00
2022-10-06T14:57:29.549Z,0.67
2022-10-06T15:02:31.302Z,0.80
2022-10-06T15:07:51.633Z,0.73
2022-10-06T15:12:53.818Z,0.80
2022-10-06T15:17:55.717Z,1.00
2022-10-06T15:22:57.424Z,0.80
2022-10-06T15:28:19.998Z,0.60
2022-10-06T15:33:25.380Z,0.80
2022-10-06T15:38:27.682Z,1.70
2022-10-06T15:43:51.488Z,1.30
2022-10-06T15:49:00.840Z,0.80
2022-10-06T15:54:02.513Z,0.50
2022-10-06T15:59:07.150Z,0.73
2022-10-06T16:04:40.242Z,0.77
2022-10-06T16:09:44.333Z,0.70
2022-10-06T16:14:46.296Z,0.70
2022-10-06T16:19:47.876Z,1.10
2022-10-06T16:24:49.879Z,0.57
2022-10-06T16:29:51.525Z,0.93
2022-10-06T16:34:53.074Z,0.80
2022-10-06T16:39:54.732Z,1.20
2022-10-06T16:44:56.307Z,1.27
2022-10-06T16:49:58.302Z,0.83
2022-10-06T16:55:01.666Z,0.90
2022-10-06T17:00:05.831Z,0.90
2022-10-06T17:05:07.613Z,1.80
2022-10-06T17:10:20.204Z,4.17
2022-10-06T17:15:22.691Z,4.00
2022-10-06T17:20:24.722Z,2.83
2022-10-06T17:25:26.382Z,2.60
2022-10-06T17:30:27.933Z,2.73
2022-10-06T17:35:29.957Z,3.10
2022-10-06T17:40:31.504Z,3.80
2022-10-06T17:45:38.267Z,4.73
2022-10-06T17:50:39.999Z,3.60
2022-10-06T17:55:41.584Z,3.20
2022-10-06T18:00:43.744Z,5.60
2022-10-06T18:05:53.373Z,4.33
2022-10-06T18:11:13.651Z,1.90
2022-10-06T18:16:26.743Z,1.40
2022-10-06T18:21:35.204Z,1.60
2022-10-06T18:26:38.316Z,1.60
2022-10-06T18:31:40.219Z,1.40
2022-10-06T18:36:42.520Z,1.70
2022-10-06T18:41:45.206Z,1.90
2022-10-06T18:47:05.933Z,2.53
2022-10-06T18:52:07.576Z,2.40
2022-10-06T18:57:09.293Z,1.83
2022-10-06T19:02:11.719Z,1.93
2022-10-06T19:07:13.567Z,1.80
2022-10-06T19:12:15.947Z,3.00
2022-10-06T19:17:18.964Z,1.77
2022-10-06T19:22:24.586Z,2.53
2022-10-06T19:27:27.998Z,2.10
2022-10-06T19:32:32.195Z,2.10
2022-10-06T19:37:33.976Z,2.47
2022-10-06T19:42:47.662Z,2.13
2022-10-06T19:47:51.330Z,2.00
2022-10-06T19:52:52.987Z,2.07
2022-10-06T19:57:54.563Z,2.17
2022-10-06T20:02:56.572Z,3.00
2022-10-06T20:07:58.239Z,2.30
2022-10-06T20:12:59.812Z,1.97
2022-10-06T20:18:02.249Z,1.90
2022-10-06T20:23:03.817Z,1.93
2022-10-06T20:28:08.837Z,2.13
2022-10-06T20:33:11.249Z,1.90
2022-10-06T20:38:12.905Z,1.63
2022-10-06T20:43:15.419Z,1.80
2022-10-06T20:48:17.174Z,1.80
2022-10-06T20:53:18.772Z,2.00
2022-10-06T20:58:20.297Z,1.90
2022-10-06T21:03:22.049Z,2.10
2022-10-06T21:08:23.818Z,1.67
2022-10-06T21:13:26.560Z,2.23
2022-10-06T21:18:28.557Z,2.30
2022-10-06T21:23:31.783Z,2.00
2022-10-06T21:28:34.685Z,2.03
2022-10-06T21:33:41.438Z,2.60
2022-10-06T21:38:47.844Z,1.90
2022-10-06T21:44:00.946Z,2.10
2022-10-06T21:49:04.518Z,2.40
2022-10-06T21:54:06.288Z,2.13
2022-10-06T21:59:10.266Z,2.23
2022-10-06T22:04:14.318Z,2.60
2022-10-06T22:09:17.900Z,2.30
2022-10-06T22:14:20.302Z,2.63
2022-10-06T22:19:21.993Z,2.40
2022-10-06T22:24:25.173Z,2.40
2022-10-06T22:29:27.031Z,2.57
2022-10-06T22:34:28.843Z,2.50
2022-10-06T22:39:30.721Z,2.60
2022-10-06T22:44:32.598Z,2.67
2022-10-06T22:49:34.259Z,2.20
2022-10-06T22:54:35.989Z,2.60
2022-10-06T22:59:40.378Z,2.43
2022-10-06T23:04:42.080Z,2.30
2022-10-06T23:09:43.998Z,2.17
2022-10-06T23:14:45.832Z,2.10
2022-10-06T23:19:47.558Z,2.23
2022-10-06T23:24:49.373Z,2.57
2022-10-06T23:29:51.327Z,2.30
2022-10-06T23:34:53.001Z,2.40
2022-10-06T23:39:54.940Z,2.43
2022-10-06T23:44:56.692Z,2.70
2022-10-06T23:49:58.440Z,2.30
2022-10-06T23:55:00.205Z,2.60
